This is the latest recevied weather packets stored in our database for station/object SAVIL. If no packets are shown the sender has not sent any weather packets the latest 10 day(s).
| Time | Temp. | Humidity | Pressure | Rain* | Wind** | Luminosity | Snow |
|---|---|---|---|---|---|---|---|
| 1777936031 | 7.22° C | 69% | 996.3 hPa | 0 mm | - | - | - |
| 1777934831 | 7.78° C | 66% | 996.2 hPa | 0 mm | - | - | - |
| 1777933631 | 8.33° C | 63% | 996.1 hPa | 0 mm | - | - | - |
| 1777932431 | 8.33° C | 63% | 996.2 hPa | 0 mm | - | - | - |
| 1777931230 | 8.89° C | 61% | 996.1 hPa | 0 mm | - | - | - |
| 1777930030 | 8.89° C | 60% | 995.9 hPa | 0 mm | - | - | - |
| 1777928830 | 8.89° C | 60% | 995.8 hPa | 0 mm | - | - | - |
| 1777927630 | 8.89° C | 62% | 996 hPa | 0 mm | - | - | - |
| 1777926430 | 8.89° C | 63% | 995.9 hPa | 0 mm | - | - | - |
| 1777925230 | 8.89° C | 67% | 995.9 hPa | 0 mm | - | - | - |
| 1777924030 | 8.89° C | 72% | 996 hPa | 0 mm | - | - | - |
| 1777922830 | 8.89° C | 77% | 995.9 hPa | 0 mm | - | - | - |
| 1777921630 | 8.89° C | 78% | 996.2 hPa | 0 mm | - | - | - |
| 1777920430 | 8.89° C | 85% | 996.4 hPa | 0 mm | - | - | - |
| 1777919230 | 9.44° C | 83% | 996.4 hPa | 0 mm | - | - | - |
| 1777918030 | 10° C | 80% | 996.3 hPa | 0 mm | - | - | - |
| 1777916830 | 10.56° C | 79% | 996.4 hPa | 0 mm | - | - | - |
| 1777915629 | 10.56° C | 80% | 996.5 hPa | 0 mm | - | - | - |
| 1777914429 | 11.11° C | 78% | 996.6 hPa | 0 mm | - | - | - |
| 1777913229 | 11.11° C | 80% | 996.6 hPa | 0 mm | - | - | - |
| 1777912029 | 10.56° C | 80% | 996.7 hPa | 0 mm | - | - | - |
| 1777910829 | 11.67° C | 78% | 996.9 hPa | 0 mm | - | - | - |
| 1777909629 | 11.67° C | 75% | 997.2 hPa | 0 mm | - | - | - |
| 1777908429 | 11.67° C | 74% | 997.4 hPa | 0 mm | - | - | - |
| 1777907229 | 11.67° C | 74% | 997.7 hPa | 0 mm | - | - | - |
* Rain latest hour (hover to see other rain measurements)
** Current wind speed in m/s (hover to see current wind gust speed)